sim
Sign-in with your pilot id or email,
or register
Callsign
Passwort

Schedule Details

Flight Number: OEO7853
Departure: Stockholm Arlanda Airport (ESSA) at 06:50
Arrival: Munich Airport (EDDM) at 09:30

Weather Information
Getting current METAR information for ESSA 190850Z 31007KT CAVOK 12/03 Q1024 NOSIG
Getting current METAR information for EDDM 190850Z 08007KT 050V120 CAVOK 14/08 Q1020 NOSIG

Schedule Frequency

Route Map